Aviation Digital Data Service (ADDS)

Output produced by METARs form (0558 UTC 01 October 2014)
found at http://www.aviationweather.gov/adds/metars/
 
KSBY 010554Z AUTO 34003KT 6SM BR FEW048 18/16 A2994 RMK AO2 SLP141 T01780156 10200 20172 51006
KSBY 010542Z 0106/0206 VRB04KT P6SM VCSH BKN045 BKN060 
     FM010900 00000KT 2SM BR BKN005 
     FM011300 01004KT 5SM BR BKN012 
     FM011400 01007KT P6SM SCT025 
     FM011700 01010KT P6SM BKN030 BKN090 
     FM012300 VRB04KT P6SM SCT030 BKN090